sensor_id;sensor_type;location;lat;lon;timestamp;pressure;altitude;pressure_sealevel;temperature;humidity
30714;BME280;17465;47.934;33.430;2023-01-30T00:01:50;57540.13;;;-140.43;82.07
30714;BME280;17465;47.934;33.430;2023-01-30T00:04:21;57571.90;;;-140.43;81.94
30714;BME280;17465;47.934;33.430;2023-01-30T00:06:52;57545.43;;;-140.43;82.11
30714;BME280;17465;47.934;33.430;2023-01-30T00:09:23;57583.55;;;-140.43;82.19
30714;BME280;17465;47.934;33.430;2023-01-30T00:11:54;57568.73;;;-140.43;81.50
30714;BME280;17465;47.934;33.430;2023-01-30T00:14:24;57568.73;;;-140.43;82.32
30714;BME280;17465;47.934;33.430;2023-01-30T00:16:55;57568.73;;;-140.43;82.32
30714;BME280;17465;47.934;33.430;2023-01-30T00:19:26;57563.43;;;-140.43;82.38
30714;BME280;17465;47.934;33.430;2023-01-30T00:21:56;57565.55;;;-140.43;82.95
30714;BME280;17465;47.934;33.430;2023-01-30T00:24:27;57550.72;;;-140.43;82.31
30714;BME280;17465;47.934;33.430;2023-01-30T00:26:58;57536.95;;;-140.43;82.21
30714;BME280;17465;47.934;33.430;2023-01-30T00:29:29;57536.95;;;-140.43;82.21
30714;BME280;17465;47.934;33.430;2023-01-30T00:32:02;57535.89;;;-140.43;82.25
30714;BME280;17465;47.934;33.430;2023-01-30T00:34:34;57575.08;;;-140.43;82.17
30714;BME280;17465;47.934;33.430;2023-01-30T00:37:05;57575.08;;;-140.43;82.17
30714;BME280;17465;47.934;33.430;2023-01-30T00:39:37;57534.84;;;-140.43;82.34
30714;BME280;17465;47.934;33.430;2023-01-30T00:42:12;57580.37;;;-140.43;82.26
30714;BME280;17465;47.934;33.430;2023-01-30T00:44:41;57565.55;;;-140.43;82.85
30714;BME280;17465;47.934;33.430;2023-01-30T00:47:14;57550.72;;;-140.43;82.96
30714;BME280;17465;47.934;33.430;2023-01-30T00:49:45;57585.67;;;-140.43;82.36
30714;BME280;17465;47.934;33.430;2023-01-30T00:52:16;57583.55;;;-140.43;82.65
30714;BME280;17465;47.934;33.430;2023-01-30T00:54:50;57553.90;;;-140.43;82.47
30714;BME280;17465;47.934;33.430;2023-01-30T00:57:20;57550.72;;;-140.43;82.79
30714;BME280;17465;47.934;33.430;2023-01-30T01:00:06;57531.66;;;-140.43;83.09
30714;BME280;17465;47.934;33.430;2023-01-30T01:02:27;57568.73;;;-140.43;82.69
30714;BME280;17465;47.934;33.430;2023-01-30T01:05:00;57545.43;;;-140.43;83.30
30714;BME280;17465;47.934;33.430;2023-01-30T01:07:31;57551.78;;;-140.43;83.38
30714;BME280;17465;47.934;33.430;2023-01-30T01:10:05;57592.03;;;-140.43;83.04
30714;BME280;17465;47.934;33.430;2023-01-30T01:12:38;57592.03;;;-140.43;83.04
30714;BME280;17465;47.934;33.430;2023-01-30T01:15:09;57553.90;;;-140.43;82.51
30714;BME280;17465;47.934;33.430;2023-01-30T01:17:59;57584.61;;;-140.43;83.34
30714;BME280;17465;47.934;33.430;2023-01-30T01:20:31;57556.02;;;-140.43;82.46
30714;BME280;17465;47.934;33.430;2023-01-30T01:23:08;57549.66;;;-140.43;82.87
30714;BME280;17465;47.934;33.430;2023-01-30T01:25:45;57581.44;;;-140.43;83.02
30714;BME280;17465;47.934;33.430;2023-01-30T01:28:14;57529.54;;;-140.43;83.32
30714;BME280;17465;47.934;33.430;2023-01-30T01:30:45;57562.37;;;-140.43;83.68
30714;BME280;17465;47.934;33.430;2023-01-30T01:33:16;57560.25;;;-140.43;83.41
30714;BME280;17465;47.934;33.430;2023-01-30T01:35:46;57551.78;;;-140.43;83.21
30714;BME280;17465;47.934;33.430;2023-01-30T01:38:17;57542.25;;;-140.43;83.76
30714;BME280;17465;47.934;33.430;2023-01-30T01:40:48;57543.31;;;-140.43;83.96
30714;BME280;17465;47.934;33.430;2023-01-30T01:43:21;57586.73;;;-140.43;84.22
30714;BME280;17465;47.934;33.430;2023-01-30T01:45:54;57572.96;;;-140.43;83.73
30714;BME280;17465;47.934;33.430;2023-01-30T01:48:32;57552.84;;;-140.43;83.85
30714;BME280;17465;47.934;33.430;2023-01-30T01:51:05;57560.25;;;-140.43;84.38
30714;BME280;17465;47.934;33.430;2023-01-30T01:53:39;57560.25;;;-140.43;84.38
30714;BME280;17465;47.934;33.430;2023-01-30T01:56:11;57549.66;;;-140.43;84.63
30714;BME280;17465;47.934;33.430;2023-01-30T01:58:50;57572.96;;;-140.43;84.12
30714;BME280;17465;47.934;33.430;2023-01-30T02:01:37;57548.61;;;-140.43;83.83
30714;BME280;17465;47.934;33.430;2023-01-30T02:04:09;57568.73;;;-140.43;83.88
30714;BME280;17465;47.934;33.430;2023-01-30T02:06:42;57581.44;;;-140.43;84.02
30714;BME280;17465;47.934;33.430;2023-01-30T02:09:13;57581.44;;;-140.43;84.02
30714;BME280;17465;47.934;33.430;2023-01-30T02:11:52;57541.19;;;-140.43;83.97
30714;BME280;17465;47.934;33.430;2023-01-30T02:14:17;57552.84;;;-140.43;83.63
30714;BME280;17465;47.934;33.430;2023-01-30T02:16:48;57552.84;;;-140.43;83.63
30714;BME280;17465;47.934;33.430;2023-01-30T02:19:44;57560.25;;;-140.43;82.46
30714;BME280;17465;47.934;33.430;2023-01-30T02:22:14;57559.20;;;-140.43;84.43
30714;BME280;17465;47.934;33.430;2023-01-30T02:30:54;57582.50;;;-140.43;85.67
30714;BME280;17465;47.934;33.430;2023-01-30T02:33:56;57582.50;;;-140.43;85.67
30714;BME280;17465;47.934;33.430;2023-01-30T02:39:28;57577.20;;;-140.43;87.32
30714;BME280;17465;47.934;33.430;2023-01-30T02:42:03;57588.85;;;-140.43;87.05
30714;BME280;17465;47.934;33.430;2023-01-30T02:44:54;57579.32;;;-140.43;87.67
30714;BME280;17465;47.934;33.430;2023-01-30T02:47:36;57564.49;;;-140.43;87.56
30714;BME280;17465;47.934;33.430;2023-01-30T02:50:09;57552.84;;;-140.43;87.93
30714;BME280;17465;47.934;33.430;2023-01-30T02:52:39;57556.02;;;-140.43;87.76
30714;BME280;17465;47.934;33.430;2023-01-30T02:55:19;57556.02;;;-140.43;87.76
30714;BME280;17465;47.934;33.430;2023-01-30T02:57:51;57567.67;;;-140.43;87.64
30714;BME280;17465;47.934;33.430;2023-01-30T03:08:54;57547.54;;;-140.43;86.83
30714;BME280;17465;47.934;33.430;2023-01-30T03:11:23;57561.31;;;-140.43;86.65
30714;BME280;17465;47.934;33.430;2023-01-30T03:14:06;57569.79;;;-140.43;86.25
30714;BME280;17465;47.934;33.430;2023-01-30T03:16:37;57569.79;;;-140.43;86.25
30714;BME280;17465;47.934;33.430;2023-01-30T03:22:02;57570.85;;;-140.43;87.27
30714;BME280;17465;47.934;33.430;2023-01-30T03:24:33;57561.31;;;-140.43;87.45
30714;BME280;17465;47.934;33.430;2023-01-30T03:27:10;57562.37;;;-140.43;87.43
30714;BME280;17465;47.934;33.430;2023-01-30T03:29:41;57560.25;;;-140.43;87.52
30714;BME280;17465;47.934;33.430;2023-01-30T03:32:11;57567.67;;;-140.43;86.53
30714;BME280;17465;47.934;33.430;2023-01-30T03:34:42;57560.25;;;-140.43;87.10
30714;BME280;17465;47.934;33.430;2023-01-30T03:37:12;57582.50;;;-140.43;86.54
30714;BME280;17465;47.934;33.430;2023-01-30T03:39:44;57586.73;;;-140.43;86.99
30714;BME280;17465;47.934;33.430;2023-01-30T03:42:15;57510.48;;;-140.43;87.49
30714;BME280;17465;47.934;33.430;2023-01-30T03:44:45;57579.32;;;-140.43;87.95
30714;BME280;17465;47.934;33.430;2023-01-30T03:47:15;57579.32;;;-140.43;87.95
30714;BME280;17465;47.934;33.430;2023-01-30T03:49:46;57579.32;;;-140.43;88.64
30714;BME280;17465;47.934;33.430;2023-01-30T03:52:16;57597.32;;;-140.43;88.34
30714;BME280;17465;47.934;33.430;2023-01-30T03:54:47;57597.32;;;-140.43;88.34
30714;BME280;17465;47.934;33.430;2023-01-30T03:57:17;57569.79;;;-140.43;89.44
30714;BME280;17465;47.934;33.430;2023-01-30T03:59:47;57579.32;;;-140.43;89.85
30714;BME280;17465;47.934;33.430;2023-01-30T04:02:18;57557.08;;;-140.43;89.21
30714;BME280;17465;47.934;33.430;2023-01-30T04:04:49;57592.03;;;-140.43;89.05
30714;BME280;17465;47.934;33.430;2023-01-30T04:07:19;57562.37;;;-140.43;89.07
30714;BME280;17465;47.934;33.430;2023-01-30T04:09:50;57587.79;;;-140.43;88.85
30714;BME280;17465;47.934;33.430;2023-01-30T04:12:20;57565.55;;;-140.43;88.85
30714;BME280;17465;47.934;33.430;2023-01-30T04:14:51;57565.55;;;-140.43;88.85
30714;BME280;17465;47.934;33.430;2023-01-30T04:17:21;57548.61;;;-140.43;88.65
30714;BME280;17465;47.934;33.430;2023-01-30T04:19:52;57552.84;;;-140.43;88.86
30714;BME280;17465;47.934;33.430;2023-01-30T04:22:22;57528.48;;;-140.43;88.64
30714;BME280;17465;47.934;33.430;2023-01-30T04:24:55;57576.14;;;-140.43;88.01
30714;BME280;17465;47.934;33.430;2023-01-30T04:27:26;57576.14;;;-140.43;88.01
30714;BME280;17465;47.934;33.430;2023-01-30T04:29:56;57546.48;;;-140.43;88.29
30714;BME280;17465;47.934;33.430;2023-01-30T04:32:27;57575.08;;;-140.43;88.18
30714;BME280;17465;47.934;33.430;2023-01-30T04:34:58;57562.37;;;-140.43;87.10
30714;BME280;17465;47.934;33.430;2023-01-30T04:37:28;57562.37;;;-140.43;87.10
30714;BME280;17465;47.934;33.430;2023-01-30T04:40:02;57571.90;;;-140.43;87.76
30714;BME280;17465;47.934;33.430;2023-01-30T04:42:30;57601.56;;;-140.43;87.81
30714;BME280;17465;47.934;33.430;2023-01-30T04:45:03;57574.02;;;-140.43;87.90
30714;BME280;17465;47.934;33.430;2023-01-30T04:47:34;57562.37;;;-140.43;88.12
30714;BME280;17465;47.934;33.430;2023-01-30T04:50:06;57562.37;;;-140.43;87.72
30714;BME280;17465;47.934;33.430;2023-01-30T04:52:37;57576.14;;;-140.43;87.57
30714;BME280;17465;47.934;33.430;2023-01-30T04:55:10;57575.08;;;-140.43;88.03
30714;BME280;17465;47.934;33.430;2023-01-30T04:57:42;57582.50;;;-140.43;88.20
30714;BME280;17465;47.934;33.430;2023-01-30T05:00:18;57579.32;;;-140.43;87.29
30714;BME280;17465;47.934;33.430;2023-01-30T05:02:45;57572.96;;;-140.43;88.32
30714;BME280;17465;47.934;33.430;2023-01-30T05:05:15;57582.50;;;-140.43;88.33
30714;BME280;17465;47.934;33.430;2023-01-30T05:07:50;57596.27;;;-140.43;88.89
30714;BME280;17465;47.934;33.430;2023-01-30T05:10:21;57605.80;;;-140.43;89.08
30714;BME280;17465;47.934;33.430;2023-01-30T05:16:01;57578.26;;;-140.43;87.66
30714;BME280;17465;47.934;33.430;2023-01-30T05:18:31;57570.85;;;-140.43;88.33
30714;BME280;17465;47.934;33.430;2023-01-30T05:21:04;57552.84;;;-140.43;87.94
30714;BME280;17465;47.934;33.430;2023-01-30T05:26:24;57546.48;;;-140.43;87.50
30714;BME280;17465;47.934;33.430;2023-01-30T05:29:02;57571.90;;;-140.43;88.69
30714;BME280;17465;47.934;33.430;2023-01-30T05:31:30;57571.90;;;-140.43;88.69
30714;BME280;17465;47.934;33.430;2023-01-30T05:34:00;57556.02;;;-140.43;89.11
30714;BME280;17465;47.934;33.430;2023-01-30T05:36:33;57550.72;;;-140.43;89.20
30714;BME280;17465;47.934;33.430;2023-01-30T05:39:03;57561.31;;;-140.43;89.54
30714;BME280;17465;47.934;33.430;2023-01-30T05:41:34;57556.02;;;-140.43;89.25
30714;BME280;17465;47.934;33.430;2023-01-30T05:44:05;57559.20;;;-140.43;88.46
30714;BME280;17465;47.934;33.430;2023-01-30T05:46:57;57528.48;;;-140.43;88.07
30714;BME280;17465;47.934;33.430;2023-01-30T05:49:37;57523.18;;;-140.43;87.80
30714;BME280;17465;47.934;33.430;2023-01-30T05:52:07;57503.06;;;-140.43;86.99
30714;BME280;17465;47.934;33.430;2023-01-30T05:57:30;57531.66;;;-140.43;86.37
30714;BME280;17465;47.934;33.430;2023-01-30T06:00:00;57538.01;;;-140.43;85.46
30714;BME280;17465;47.934;33.430;2023-01-30T06:02:33;57538.01;;;-140.43;85.46
30714;BME280;17465;47.934;33.430;2023-01-30T06:05:04;57582.50;;;-140.43;86.33
30714;BME280;17465;47.934;33.430;2023-01-30T06:07:47;57538.01;;;-140.43;86.45
30714;BME280;17465;47.934;33.430;2023-01-30T06:10:18;57549.66;;;-140.43;85.88
30714;BME280;17465;47.934;33.430;2023-01-30T06:12:51;57561.31;;;-140.43;85.14
30714;BME280;17465;47.934;33.430;2023-01-30T06:15:22;57535.89;;;-140.43;84.33
30714;BME280;17465;47.934;33.430;2023-01-30T06:17:52;57535.89;;;-140.43;84.33
30714;BME280;17465;47.934;33.430;2023-01-30T06:23:15;57541.19;;;-140.43;83.27
30714;BME280;17465;47.934;33.430;2023-01-30T06:25:54;57520.01;;;-140.43;84.58
30714;BME280;17465;47.934;33.430;2023-01-30T06:28:40;57488.23;;;-140.43;84.26
30714;BME280;17465;47.934;33.430;2023-01-30T06:31:12;57496.71;;;-140.43;84.48
30714;BME280;17465;47.934;33.430;2023-01-30T06:33:43;57496.71;;;-140.43;84.48
30714;BME280;17465;47.934;33.430;2023-01-30T06:36:13;57530.60;;;-140.43;83.48
30714;BME280;17465;47.934;33.430;2023-01-30T06:38:45;57530.60;;;-140.43;83.48
30714;BME280;17465;47.934;33.430;2023-01-30T06:41:16;57518.95;;;-140.43;80.25
30714;BME280;17465;47.934;33.430;2023-01-30T06:43:49;57486.12;;;-140.43;81.55
30714;BME280;17465;47.934;33.430;2023-01-30T06:46:22;57528.48;;;-140.43;81.47
30714;BME280;17465;47.934;33.430;2023-01-30T06:48:59;57518.95;;;-140.43;81.11
30714;BME280;17465;47.934;33.430;2023-01-30T06:51:38;57536.95;;;-140.43;82.21
30714;BME280;17465;47.934;33.430;2023-01-30T06:54:15;57536.95;;;-140.43;82.21
30714;BME280;17465;47.934;33.430;2023-01-30T06:56:48;57543.31;;;-140.43;82.63
30714;BME280;17465;47.934;33.430;2023-01-30T11:09:11;56684.46;;;-140.43;67.31
30714;BME280;17465;47.934;33.430;2023-01-30T11:12:12;57428.92;;;-140.43;66.16
30714;BME280;17465;47.934;33.430;2023-01-30T11:17:44;57485.05;;;-140.43;63.41
30714;BME280;17465;47.934;33.430;2023-01-30T11:26:01;57455.40;;;-140.43;59.33
30714;BME280;17465;47.934;33.430;2023-01-30T11:28:39;57454.34;;;-140.43;59.69
30714;BME280;17465;47.934;33.430;2023-01-30T11:31:23;57443.75;;;-140.43;59.99
30714;BME280;17465;47.934;33.430;2023-01-30T11:37:40;56669.64;;;-140.43;57.48
30714;BME280;17465;47.934;33.430;2023-01-30T11:39:33;57477.64;;;-140.43;58.14
30714;BME280;17465;47.934;33.430;2023-01-30T11:45:14;57460.70;;;-140.43;59.10
30714;BME280;17465;47.934;33.430;2023-01-30T11:47:57;57460.70;;;-140.43;59.10
30714;BME280;17465;47.934;33.430;2023-01-30T11:50:41;57453.28;;;-140.43;58.79
30714;BME280;17465;47.934;33.430;2023-01-30T11:53:29;57454.34;;;-140.43;58.44
30714;BME280;17465;47.934;33.430;2023-01-30T11:56:21;57465.99;;;-140.43;58.00
30714;BME280;17465;47.934;33.430;2023-01-30T11:58:43;57462.82;;;-140.43;58.75
30714;BME280;17465;47.934;33.430;2023-01-30T12:01:15;57463.87;;;-140.43;58.29
30714;BME280;17465;47.934;33.430;2023-01-30T12:03:52;57461.76;;;-140.43;59.49
30714;BME280;17465;47.934;33.430;2023-01-30T12:06:35;57457.52;;;-140.43;59.83
30714;BME280;17465;47.934;33.430;2023-01-30T12:11:56;57455.40;;;-140.43;59.59
30714;BME280;17465;47.934;33.430;2023-01-30T12:14:38;57477.64;;;-140.43;58.56
30714;BME280;17465;47.934;33.430;2023-01-30T12:17:17;57469.17;;;-140.43;59.58
30714;BME280;17465;47.934;33.430;2023-01-30T12:34:32;57471.29;;;-140.43;60.25
30714;BME280;17465;47.934;33.430;2023-01-30T12:37:00;57471.29;;;-140.43;60.25
30714;BME280;17465;47.934;33.430;2023-01-30T12:39:58;57474.46;;;-140.43;61.54
30714;BME280;17465;47.934;33.430;2023-01-30T12:46:20;57487.18;;;-140.43;61.08
30714;BME280;17465;47.934;33.430;2023-01-30T12:49:12;57454.34;;;-140.43;60.91
30714;BME280;17465;47.934;33.430;2023-01-30T12:51:57;57462.82;;;-140.43;61.56
30714;BME280;17465;47.934;33.430;2023-01-30T12:55:31;57462.82;;;-140.43;61.56
30714;BME280;17465;47.934;33.430;2023-01-30T13:03:54;57464.93;;;-140.43;62.64
30714;BME280;17465;47.934;33.430;2023-01-30T13:09:33;57477.64;;;-140.43;61.01
30714;BME280;17465;47.934;33.430;2023-01-30T13:12:04;57477.64;;;-140.43;61.01
30714;BME280;17465;47.934;33.430;2023-01-30T13:17:33;57489.29;;;-140.43;61.88
30714;BME280;17465;47.934;33.430;2023-01-30T13:20:15;57443.75;;;-140.43;61.90
30714;BME280;17465;47.934;33.430;2023-01-30T13:36:13;57481.88;;;-140.43;61.96
30714;BME280;17465;47.934;33.430;2023-01-30T13:37:54;57459.64;;;-140.43;62.40
30714;BME280;17465;47.934;33.430;2023-01-30T13:40:38;57442.69;;;-140.43;62.08
30714;BME280;17465;47.934;33.430;2023-01-30T13:43:30;57464.93;;;-140.43;61.73
30714;BME280;17465;47.934;33.430;2023-01-30T13:46:16;57470.23;;;-140.43;62.04
30714;BME280;17465;47.934;33.430;2023-01-30T13:49:01;57492.47;;;-140.43;63.00
30714;BME280;17465;47.934;33.430;2023-01-30T13:51:56;57467.05;;;-140.43;62.76
30714;BME280;17465;47.934;33.430;2023-01-30T13:54:59;57485.05;;;-140.43;63.09
30714;BME280;17465;47.934;33.430;2023-01-30T14:00:37;57479.76;;;-140.43;62.59
30714;BME280;17465;47.934;33.430;2023-01-30T14:08:53;57492.47;;;-140.43;63.46
30714;BME280;17465;47.934;33.430;2023-01-30T14:17:26;57470.23;;;-140.43;63.52
30714;BME280;17465;47.934;33.430;2023-01-30T14:20:01;57481.88;;;-140.43;63.76
30714;BME280;17465;47.934;33.430;2023-01-30T14:22:54;57489.29;;;-140.43;65.47
30714;BME280;17465;47.934;33.430;2023-01-30T14:25:36;57479.76;;;-140.43;65.29
30714;BME280;17465;47.934;33.430;2023-01-30T14:31:02;57471.29;;;-140.43;65.86
30714;BME280;17465;47.934;33.430;2023-01-30T14:33:47;57454.34;;;-140.43;65.72
30714;BME280;17465;47.934;33.430;2023-01-30T14:39:30;57480.82;;;-140.43;66.36
30714;BME280;17465;47.934;33.430;2023-01-30T14:41:27;57462.82;;;-140.43;66.61
30714;BME280;17465;47.934;33.430;2023-01-30T14:44:01;57487.18;;;-140.43;66.52
30714;BME280;17465;47.934;33.430;2023-01-30T14:49:32;57482.94;;;-140.43;66.15
30714;BME280;17465;47.934;33.430;2023-01-30T14:52:16;57480.82;;;-140.43;66.15
30714;BME280;17465;47.934;33.430;2023-01-30T14:54:42;57463.87;;;-140.43;66.32
30714;BME280;17465;47.934;33.430;2023-01-30T15:00:22;57468.11;;;-140.43;67.63
30714;BME280;17465;47.934;33.430;2023-01-30T15:03:17;57460.70;;;-140.43;68.28
30714;BME280;17465;47.934;33.430;2023-01-30T15:05:48;57438.46;;;-140.43;68.55
30714;BME280;17465;47.934;33.430;2023-01-30T15:08:21;57478.70;;;-140.43;68.48
30714;BME280;17465;47.934;33.430;2023-01-30T15:11:06;57487.18;;;-140.43;68.87
30714;BME280;17465;47.934;33.430;2023-01-30T15:14:09;57487.18;;;-140.43;68.87
30714;BME280;17465;47.934;33.430;2023-01-30T15:17:15;57492.47;;;-140.43;69.10
30714;BME280;17465;47.934;33.430;2023-01-30T15:20:03;57467.05;;;-140.43;69.56
30714;BME280;17465;47.934;33.430;2023-01-30T15:22:41;57503.06;;;-140.43;69.13
30714;BME280;17465;47.934;33.430;2023-01-30T15:25:31;57474.46;;;-140.43;68.91
30714;BME280;17465;47.934;33.430;2023-01-30T15:28:14;57477.64;;;-140.43;69.56
30714;BME280;17465;47.934;33.430;2023-01-30T15:31:20;57461.76;;;-140.43;69.25
30714;BME280;17465;47.934;33.430;2023-01-30T15:33:54;57452.23;;;-140.43;68.96
30714;BME280;17465;47.934;33.430;2023-01-30T15:36:34;57452.23;;;-140.43;68.96
30714;BME280;17465;47.934;33.430;2023-01-30T15:39:27;57486.12;;;-140.43;69.54
30714;BME280;17465;47.934;33.430;2023-01-30T15:42:05;57482.94;;;-140.43;69.67
30714;BME280;17465;47.934;33.430;2023-01-30T15:44:59;57500.94;;;-140.43;70.43
30714;BME280;17465;47.934;33.430;2023-01-30T15:47:42;57497.77;;;-140.43;69.60
30714;BME280;17465;47.934;33.430;2023-01-30T15:50:11;57465.99;;;-140.43;69.20
30714;BME280;17465;47.934;33.430;2023-01-30T15:52:45;57465.99;;;-140.43;69.20
30714;BME280;17465;47.934;33.430;2023-01-30T15:55:35;57495.65;;;-140.43;70.64
30714;BME280;17465;47.934;33.430;2023-01-30T15:58:21;57503.06;;;-140.43;70.49
30714;BME280;17465;47.934;33.430;2023-01-30T16:00:58;57509.41;;;-140.43;70.40
30714;BME280;17465;47.934;33.430;2023-01-30T16:03:33;57509.41;;;-140.43;70.40
30714;BME280;17465;47.934;33.430;2023-01-30T16:09:25;57470.23;;;-140.43;70.70
30714;BME280;17465;47.934;33.430;2023-01-30T16:11:56;57491.41;;;-140.43;71.21
30714;BME280;17465;47.934;33.430;2023-01-30T20:05:14;56771.29;;;-140.43;76.90
30714;BME280;17465;47.934;33.430;2023-01-30T20:07:50;57489.29;;;-140.43;74.93
30714;BME280;17465;47.934;33.430;2023-01-30T20:10:29;57477.64;;;-140.43;74.29
30714;BME280;17465;47.934;33.430;2023-01-30T20:13:41;57477.64;;;-140.43;74.29
30714;BME280;17465;47.934;33.430;2023-01-30T20:19:10;57462.82;;;-140.43;74.16
30714;BME280;17465;47.934;33.430;2023-01-30T20:21:40;57487.18;;;-140.43;73.40
30714;BME280;17465;47.934;33.430;2023-01-30T20:24:14;57487.18;;;-140.43;73.40
30714;BME280;17465;47.934;33.430;2023-01-30T20:26:46;57490.35;;;-140.43;73.36
30714;BME280;17465;47.934;33.430;2023-01-30T20:29:17;57490.35;;;-140.43;73.36
30714;BME280;17465;47.934;33.430;2023-01-30T20:31:53;57499.88;;;-140.43;74.27
30714;BME280;17465;47.934;33.430;2023-01-30T20:34:26;57486.12;;;-140.43;73.99
30714;BME280;17465;47.934;33.430;2023-01-30T20:36:57;57470.23;;;-140.43;74.21
30714;BME280;17465;47.934;33.430;2023-01-30T20:39:28;57470.23;;;-140.43;74.21
30714;BME280;17465;47.934;33.430;2023-01-30T20:41:59;57487.18;;;-140.43;73.99
30714;BME280;17465;47.934;33.430;2023-01-30T20:44:38;57485.05;;;-140.43;72.97
30714;BME280;17465;47.934;33.430;2023-01-30T20:47:28;57478.70;;;-140.43;73.70
30714;BME280;17465;47.934;33.430;2023-01-30T20:50:09;57478.70;;;-140.43;73.70
30714;BME280;17465;47.934;33.430;2023-01-30T20:52:40;57467.05;;;-140.43;74.01
30714;BME280;17465;47.934;33.430;2023-01-30T20:55:12;57475.52;;;-140.43;73.30
30714;BME280;17465;47.934;33.430;2023-01-30T20:57:43;57496.71;;;-140.43;73.84
30714;BME280;17465;47.934;33.430;2023-01-30T21:00:17;57499.88;;;-140.43;73.73
30714;BME280;17465;47.934;33.430;2023-01-30T21:02:58;57468.11;;;-140.43;74.03
30714;BME280;17465;47.934;33.430;2023-01-30T21:05:28;57488.23;;;-140.43;73.63
30714;BME280;17465;47.934;33.430;2023-01-30T21:08:08;57468.11;;;-140.43;73.90
30714;BME280;17465;47.934;33.430;2023-01-30T21:11:14;57486.12;;;-140.43;74.20
30714;BME280;17465;47.934;33.430;2023-01-30T21:14:07;57472.35;;;-140.43;73.48
30714;BME280;17465;47.934;33.430;2023-01-30T21:20:35;57489.29;;;-140.43;73.26
30714;BME280;17465;47.934;33.430;2023-01-30T21:23:13;57493.53;;;-140.43;74.67
30714;BME280;17465;47.934;33.430;2023-01-30T21:26:09;57493.53;;;-140.43;74.67
30714;BME280;17465;47.934;33.430;2023-01-30T21:28:49;57513.65;;;-140.43;74.67
30714;BME280;17465;47.934;33.430;2023-01-30T21:31:31;57492.47;;;-140.43;74.62
30714;BME280;17465;47.934;33.430;2023-01-30T21:34:16;57467.05;;;-140.43;73.76
30714;BME280;17465;47.934;33.430;2023-01-30T21:39:34;57463.87;;;-140.43;73.32
30714;BME280;17465;47.934;33.430;2023-01-30T21:59:18;57479.76;;;-140.43;75.68
30714;BME280;17465;47.934;33.430;2023-01-30T22:01:37;57482.94;;;-140.43;76.12
30714;BME280;17465;47.934;33.430;2023-01-30T22:04:13;57482.94;;;-140.43;76.12
30714;BME280;17465;47.934;33.430;2023-01-30T22:06:43;57495.65;;;-140.43;76.11
30714;BME280;17465;47.934;33.430;2023-01-30T22:09:15;57489.29;;;-140.43;76.57
30714;BME280;17465;47.934;33.430;2023-01-30T22:11:46;57489.29;;;-140.43;76.57
30714;BME280;17465;47.934;33.430;2023-01-30T22:14:16;57527.42;;;-140.43;77.12
30714;BME280;17465;47.934;33.430;2023-01-30T22:16:47;57484.00;;;-140.43;77.23
30714;BME280;17465;47.934;33.430;2023-01-30T22:19:18;57484.00;;;-140.43;77.23
30714;BME280;17465;47.934;33.430;2023-01-30T22:21:48;57479.76;;;-140.43;77.68
30714;BME280;17465;47.934;33.430;2023-01-30T22:24:19;57486.12;;;-140.43;78.31
30714;BME280;17465;47.934;33.430;2023-01-30T22:26:50;57462.82;;;-140.43;78.37
30714;BME280;17465;47.934;33.430;2023-01-30T22:29:21;57462.82;;;-140.43;78.37
30714;BME280;17465;47.934;33.430;2023-01-30T22:31:51;57515.77;;;-140.43;77.72
30714;BME280;17465;47.934;33.430;2023-01-30T22:34:22;57515.77;;;-140.43;77.72
30714;BME280;17465;47.934;33.430;2023-01-30T22:36:52;57461.76;;;-140.43;77.65
30714;BME280;17465;47.934;33.430;2023-01-30T22:39:23;57478.70;;;-140.43;77.89
30714;BME280;17465;47.934;33.430;2023-01-30T22:41:54;57500.94;;;-140.43;77.51
30714;BME280;17465;47.934;33.430;2023-01-30T22:44:24;57489.29;;;-140.43;78.14
30714;BME280;17465;47.934;33.430;2023-01-30T22:46:56;57540.13;;;-140.43;78.25
30714;BME280;17465;47.934;33.430;2023-01-30T22:49:27;57540.13;;;-140.43;78.25
30714;BME280;17465;47.934;33.430;2023-01-30T22:51:57;57488.23;;;-140.43;77.87
30714;BME280;17465;47.934;33.430;2023-01-30T22:54:28;57488.23;;;-140.43;77.87
30714;BME280;17465;47.934;33.430;2023-01-30T22:56:58;57504.12;;;-140.43;78.17
30714;BME280;17465;47.934;33.430;2023-01-30T22:59:29;57497.77;;;-140.43;77.67
30714;BME280;17465;47.934;33.430;2023-01-30T23:01:59;57470.23;;;-140.43;77.39
30714;BME280;17465;47.934;33.430;2023-01-30T23:04:30;57494.59;;;-140.43;77.33
30714;BME280;17465;47.934;33.430;2023-01-30T23:07:01;57494.59;;;-140.43;77.09
30714;BME280;17465;47.934;33.430;2023-01-30T23:09:35;57490.35;;;-140.43;77.20
30714;BME280;17465;47.934;33.430;2023-01-30T23:12:06;57507.30;;;-140.43;76.70
30714;BME280;17465;47.934;33.430;2023-01-30T23:14:41;57507.30;;;-140.43;76.70
30714;BME280;17465;47.934;33.430;2023-01-30T23:17:12;57467.05;;;-140.43;75.79
30714;BME280;17465;47.934;33.430;2023-01-30T23:19:42;57512.59;;;-140.43;75.81
30714;BME280;17465;47.934;33.430;2023-01-30T23:22:14;57476.58;;;-140.43;75.30
30714;BME280;17465;47.934;33.430;2023-01-30T23:24:44;57496.71;;;-140.43;75.42
30714;BME280;17465;47.934;33.430;2023-01-30T23:27:15;57490.35;;;-140.43;75.31
30714;BME280;17465;47.934;33.430;2023-01-30T23:29:45;57482.94;;;-140.43;75.71
30714;BME280;17465;47.934;33.430;2023-01-30T23:32:17;57493.53;;;-140.43;75.48
30714;BME280;17465;47.934;33.430;2023-01-30T23:34:47;57477.64;;;-140.43;75.71
30714;BME280;17465;47.934;33.430;2023-01-30T23:37:18;57486.12;;;-140.43;75.55
30714;BME280;17465;47.934;33.430;2023-01-30T23:39:49;57486.12;;;-140.43;75.55
30714;BME280;17465;47.934;33.430;2023-01-30T23:42:19;57490.35;;;-140.43;76.08